sensor_id;sensor_type;location;lat;lon;timestamp;P1;durP1;ratioP1;P2;durP2;ratioP2
73760;SDS011;69240;43.530;-5.646;2023-05-15T00:00:03;12.90;;;7.85;;
73760;SDS011;69240;43.530;-5.646;2023-05-15T00:02:30;15.48;;;8.32;;
73760;SDS011;69240;43.530;-5.646;2023-05-15T00:04:58;12.40;;;8.40;;
73760;SDS011;69240;43.530;-5.646;2023-05-15T00:07:24;14.07;;;8.10;;
73760;SDS011;69240;43.530;-5.646;2023-05-15T00:09:50;15.02;;;8.38;;
73760;SDS011;69240;43.530;-5.646;2023-05-15T00:12:15;15.95;;;8.52;;
73760;SDS011;69240;43.530;-5.646;2023-05-15T00:14:41;13.18;;;8.70;;
73760;SDS011;69240;43.530;-5.646;2023-05-15T00:17:07;14.90;;;8.30;;
73760;SDS011;69240;43.530;-5.646;2023-05-15T00:19:33;13.90;;;7.95;;
73760;SDS011;69240;43.530;-5.646;2023-05-15T00:21:59;10.07;;;7.43;;
73760;SDS011;69240;43.530;-5.646;2023-05-15T00:24:25;12.50;;;8.50;;
73760;SDS011;69240;43.530;-5.646;2023-05-15T00:26:50;17.60;;;8.30;;
73760;SDS011;69240;43.530;-5.646;2023-05-15T00:29:16;18.45;;;9.27;;
73760;SDS011;69240;43.530;-5.646;2023-05-15T00:31:41;11.02;;;8.35;;
73760;SDS011;69240;43.530;-5.646;2023-05-15T00:34:07;11.10;;;7.63;;
73760;SDS011;69240;43.530;-5.646;2023-05-15T00:36:32;11.48;;;7.97;;
73760;SDS011;69240;43.530;-5.646;2023-05-15T00:38:58;12.82;;;8.23;;
73760;SDS011;69240;43.530;-5.646;2023-05-15T00:41:24;11.80;;;7.90;;
73760;SDS011;69240;43.530;-5.646;2023-05-15T00:43:52;14.52;;;8.32;;
73760;SDS011;69240;43.530;-5.646;2023-05-15T00:46:20;13.63;;;8.20;;
73760;SDS011;69240;43.530;-5.646;2023-05-15T00:48:46;13.43;;;8.20;;
73760;SDS011;69240;43.530;-5.646;2023-05-15T00:51:14;15.90;;;8.02;;
73760;SDS011;69240;43.530;-5.646;2023-05-15T00:53:41;16.85;;;8.90;;
73760;SDS011;69240;43.530;-5.646;2023-05-15T00:56:08;9.18;;;7.50;;
73760;SDS011;69240;43.530;-5.646;2023-05-15T00:58:36;10.23;;;7.22;;
73760;SDS011;69240;43.530;-5.646;2023-05-15T01:01:02;14.85;;;8.85;;
73760;SDS011;69240;43.530;-5.646;2023-05-15T01:03:28;14.73;;;7.93;;
73760;SDS011;69240;43.530;-5.646;2023-05-15T01:05:54;10.38;;;8.25;;
73760;SDS011;69240;43.530;-5.646;2023-05-15T01:08:26;9.95;;;7.80;;
73760;SDS011;69240;43.530;-5.646;2023-05-15T01:11:08;11.75;;;7.75;;
73760;SDS011;69240;43.530;-5.646;2023-05-15T01:13:34;12.32;;;8.23;;
73760;SDS011;69240;43.530;-5.646;2023-05-15T01:15:59;10.82;;;8.15;;
73760;SDS011;69240;43.530;-5.646;2023-05-15T01:18:25;12.63;;;7.68;;
73760;SDS011;69240;43.530;-5.646;2023-05-15T01:23:31;9.88;;;7.40;;
73760;SDS011;69240;43.530;-5.646;2023-05-15T01:31:39;12.40;;;7.47;;
73760;SDS011;69240;43.530;-5.646;2023-05-15T01:34:09;12.80;;;7.82;;
73760;SDS011;69240;43.530;-5.646;2023-05-15T01:36:36;9.90;;;8.43;;
73760;SDS011;69240;43.530;-5.646;2023-05-15T01:39:07;12.70;;;7.72;;
73760;SDS011;69240;43.530;-5.646;2023-05-15T01:44:14;14.38;;;7.50;;
73760;SDS011;69240;43.530;-5.646;2023-05-15T01:46:45;11.65;;;8.63;;
73760;SDS011;69240;43.530;-5.646;2023-05-15T01:49:16;13.25;;;8.50;;
73760;SDS011;69240;43.530;-5.646;2023-05-15T01:51:44;14.15;;;8.60;;
73760;SDS011;69240;43.530;-5.646;2023-05-15T01:54:13;15.93;;;8.15;;
73760;SDS011;69240;43.530;-5.646;2023-05-15T01:56:40;12.38;;;8.25;;
73760;SDS011;69240;43.530;-5.646;2023-05-15T01:59:09;13.45;;;8.32;;
73760;SDS011;69240;43.530;-5.646;2023-05-15T02:01:37;15.13;;;8.40;;
73760;SDS011;69240;43.530;-5.646;2023-05-15T02:04:03;15.20;;;8.40;;
73760;SDS011;69240;43.530;-5.646;2023-05-15T02:06:30;14.75;;;9.20;;
73760;SDS011;69240;43.530;-5.646;2023-05-15T02:08:58;11.65;;;7.70;;
73760;SDS011;69240;43.530;-5.646;2023-05-15T02:11:26;11.57;;;8.68;;
73760;SDS011;69240;43.530;-5.646;2023-05-15T02:13:51;12.73;;;7.78;;
73760;SDS011;69240;43.530;-5.646;2023-05-15T02:16:20;10.73;;;8.27;;
73760;SDS011;69240;43.530;-5.646;2023-05-15T02:18:46;13.48;;;8.52;;
73760;SDS011;69240;43.530;-5.646;2023-05-15T02:21:12;12.70;;;7.85;;
73760;SDS011;69240;43.530;-5.646;2023-05-15T02:23:38;11.63;;;8.20;;
73760;SDS011;69240;43.530;-5.646;2023-05-15T02:31:34;10.75;;;8.20;;
73760;SDS011;69240;43.530;-5.646;2023-05-15T02:36:46;16.83;;;7.93;;
73760;SDS011;69240;43.530;-5.646;2023-05-15T02:39:14;11.23;;;8.85;;
73760;SDS011;69240;43.530;-5.646;2023-05-15T02:41:41;14.30;;;8.48;;
73760;SDS011;69240;43.530;-5.646;2023-05-15T02:44:07;14.68;;;8.70;;
73760;SDS011;69240;43.530;-5.646;2023-05-15T02:46:35;12.38;;;8.30;;
73760;SDS011;69240;43.530;-5.646;2023-05-15T02:49:01;16.30;;;8.77;;
73760;SDS011;69240;43.530;-5.646;2023-05-15T02:51:28;12.77;;;8.13;;
73760;SDS011;69240;43.530;-5.646;2023-05-15T02:53:54;13.23;;;8.98;;
73760;SDS011;69240;43.530;-5.646;2023-05-15T02:56:19;12.85;;;8.70;;
73760;SDS011;69240;43.530;-5.646;2023-05-15T02:58:45;15.55;;;8.82;;
73760;SDS011;69240;43.530;-5.646;2023-05-15T03:01:11;13.23;;;8.63;;
73760;SDS011;69240;43.530;-5.646;2023-05-15T03:03:36;19.00;;;9.32;;
73760;SDS011;69240;43.530;-5.646;2023-05-15T03:06:02;12.38;;;7.93;;
73760;SDS011;69240;43.530;-5.646;2023-05-15T03:08:27;28.30;;;10.43;;
73760;SDS011;69240;43.530;-5.646;2023-05-15T03:10:53;13.35;;;8.77;;
73760;SDS011;69240;43.530;-5.646;2023-05-15T03:13:18;17.60;;;9.52;;
73760;SDS011;69240;43.530;-5.646;2023-05-15T03:15:44;15.60;;;9.75;;
73760;SDS011;69240;43.530;-5.646;2023-05-15T03:18:09;12.15;;;10.05;;
73760;SDS011;69240;43.530;-5.646;2023-05-15T03:20:35;14.98;;;10.05;;
73760;SDS011;69240;43.530;-5.646;2023-05-15T03:23:00;12.95;;;9.38;;
73760;SDS011;69240;43.530;-5.646;2023-05-15T03:25:26;14.82;;;10.57;;
73760;SDS011;69240;43.530;-5.646;2023-05-15T03:27:52;12.18;;;8.30;;
73760;SDS011;69240;43.530;-5.646;2023-05-15T03:30:17;12.55;;;8.80;;
73760;SDS011;69240;43.530;-5.646;2023-05-15T03:32:43;13.73;;;9.57;;
73760;SDS011;69240;43.530;-5.646;2023-05-15T03:35:08;16.88;;;9.93;;
73760;SDS011;69240;43.530;-5.646;2023-05-15T03:37:34;14.32;;;10.68;;
73760;SDS011;69240;43.530;-5.646;2023-05-15T03:39:59;11.95;;;9.75;;
73760;SDS011;69240;43.530;-5.646;2023-05-15T03:42:25;11.55;;;9.85;;
73760;SDS011;69240;43.530;-5.646;2023-05-15T03:44:51;12.05;;;9.32;;
73760;SDS011;69240;43.530;-5.646;2023-05-15T03:47:17;13.98;;;9.52;;
73760;SDS011;69240;43.530;-5.646;2023-05-15T03:49:44;16.38;;;10.38;;
73760;SDS011;69240;43.530;-5.646;2023-05-15T03:52:10;15.38;;;9.68;;
73760;SDS011;69240;43.530;-5.646;2023-05-15T03:54:35;12.40;;;10.40;;
73760;SDS011;69240;43.530;-5.646;2023-05-15T03:57:01;15.65;;;10.50;;
73760;SDS011;69240;43.530;-5.646;2023-05-15T03:59:28;16.95;;;11.60;;
73760;SDS011;69240;43.530;-5.646;2023-05-15T04:01:54;14.80;;;10.75;;
73760;SDS011;69240;43.530;-5.646;2023-05-15T04:04:19;14.98;;;10.55;;
73760;SDS011;69240;43.530;-5.646;2023-05-15T04:06:45;17.77;;;11.60;;
73760;SDS011;69240;43.530;-5.646;2023-05-15T04:09:10;18.05;;;10.90;;
73760;SDS011;69240;43.530;-5.646;2023-05-15T04:11:36;14.77;;;10.55;;
73760;SDS011;69240;43.530;-5.646;2023-05-15T04:14:01;16.88;;;11.48;;
73760;SDS011;69240;43.530;-5.646;2023-05-15T04:16:27;17.48;;;12.15;;
73760;SDS011;69240;43.530;-5.646;2023-05-15T04:18:53;16.70;;;11.18;;
73760;SDS011;69240;43.530;-5.646;2023-05-15T04:21:18;17.95;;;11.32;;
73760;SDS011;69240;43.530;-5.646;2023-05-15T04:23:44;16.70;;;12.25;;
73760;SDS011;69240;43.530;-5.646;2023-05-15T04:26:09;18.38;;;12.35;;
73760;SDS011;69240;43.530;-5.646;2023-05-15T04:28:35;17.17;;;13.90;;
73760;SDS011;69240;43.530;-5.646;2023-05-15T04:31:01;16.45;;;13.00;;
73760;SDS011;69240;43.530;-5.646;2023-05-15T04:33:26;21.15;;;14.60;;
73760;SDS011;69240;43.530;-5.646;2023-05-15T04:35:52;19.10;;;12.45;;
73760;SDS011;69240;43.530;-5.646;2023-05-15T04:38:17;16.73;;;12.00;;
73760;SDS011;69240;43.530;-5.646;2023-05-15T04:40:43;20.50;;;12.45;;
73760;SDS011;69240;43.530;-5.646;2023-05-15T04:43:09;18.10;;;11.65;;
73760;SDS011;69240;43.530;-5.646;2023-05-15T04:45:35;12.90;;;10.57;;
73760;SDS011;69240;43.530;-5.646;2023-05-15T04:48:00;14.80;;;11.68;;
73760;SDS011;69240;43.530;-5.646;2023-05-15T04:50:26;16.60;;;12.70;;
73760;SDS011;69240;43.530;-5.646;2023-05-15T04:52:52;16.20;;;11.38;;
73760;SDS011;69240;43.530;-5.646;2023-05-15T04:55:18;20.25;;;12.50;;
73760;SDS011;69240;43.530;-5.646;2023-05-15T04:57:45;20.17;;;12.35;;
73760;SDS011;69240;43.530;-5.646;2023-05-15T05:00:11;20.15;;;13.02;;
73760;SDS011;69240;43.530;-5.646;2023-05-15T05:02:38;13.82;;;11.77;;
73760;SDS011;69240;43.530;-5.646;2023-05-15T05:05:04;16.95;;;11.57;;
73760;SDS011;69240;43.530;-5.646;2023-05-15T05:07:31;16.45;;;11.65;;
73760;SDS011;69240;43.530;-5.646;2023-05-15T05:09:59;14.75;;;12.10;;
73760;SDS011;69240;43.530;-5.646;2023-05-15T05:12:26;17.45;;;11.25;;
73760;SDS011;69240;43.530;-5.646;2023-05-15T05:14:51;15.45;;;10.98;;
73760;SDS011;69240;43.530;-5.646;2023-05-15T05:17:17;16.73;;;12.80;;
73760;SDS011;69240;43.530;-5.646;2023-05-15T05:19:42;16.90;;;11.68;;
73760;SDS011;69240;43.530;-5.646;2023-05-15T05:22:08;21.35;;;13.20;;
73760;SDS011;69240;43.530;-5.646;2023-05-15T05:24:35;18.73;;;12.57;;
73760;SDS011;69240;43.530;-5.646;2023-05-15T05:27:01;21.50;;;13.07;;
73760;SDS011;69240;43.530;-5.646;2023-05-15T05:29:30;18.65;;;14.63;;
73760;SDS011;69240;43.530;-5.646;2023-05-15T05:31:55;21.42;;;14.38;;
73760;SDS011;69240;43.530;-5.646;2023-05-15T05:34:21;18.92;;;13.65;;
73760;SDS011;69240;43.530;-5.646;2023-05-15T05:36:47;22.48;;;14.20;;
73760;SDS011;69240;43.530;-5.646;2023-05-15T05:39:13;18.67;;;13.00;;
73760;SDS011;69240;43.530;-5.646;2023-05-15T05:41:40;20.77;;;14.50;;
73760;SDS011;69240;43.530;-5.646;2023-05-15T05:44:09;21.33;;;13.15;;
73760;SDS011;69240;43.530;-5.646;2023-05-15T05:46:35;17.50;;;12.82;;
73760;SDS011;69240;43.530;-5.646;2023-05-15T05:49:00;19.02;;;13.95;;
73760;SDS011;69240;43.530;-5.646;2023-05-15T05:51:26;21.00;;;13.63;;
73760;SDS011;69240;43.530;-5.646;2023-05-15T05:53:52;19.77;;;13.98;;
73760;SDS011;69240;43.530;-5.646;2023-05-15T05:56:17;21.35;;;12.85;;
73760;SDS011;69240;43.530;-5.646;2023-05-15T05:58:43;19.42;;;14.00;;
73760;SDS011;69240;43.530;-5.646;2023-05-15T06:01:09;23.83;;;14.75;;
73760;SDS011;69240;43.530;-5.646;2023-05-15T06:03:36;21.80;;;14.25;;
73760;SDS011;69240;43.530;-5.646;2023-05-15T06:06:05;20.42;;;13.73;;
73760;SDS011;69240;43.530;-5.646;2023-05-15T06:08:31;18.50;;;14.43;;
73760;SDS011;69240;43.530;-5.646;2023-05-15T06:10:57;20.75;;;14.55;;
73760;SDS011;69240;43.530;-5.646;2023-05-15T06:13:25;18.52;;;13.93;;
73760;SDS011;69240;43.530;-5.646;2023-05-15T06:15:51;20.63;;;13.82;;
73760;SDS011;69240;43.530;-5.646;2023-05-15T06:18:16;23.40;;;13.52;;
73760;SDS011;69240;43.530;-5.646;2023-05-15T06:20:42;20.58;;;15.00;;
73760;SDS011;69240;43.530;-5.646;2023-05-15T06:23:07;19.02;;;13.73;;
73760;SDS011;69240;43.530;-5.646;2023-05-15T06:25:33;19.92;;;14.10;;
73760;SDS011;69240;43.530;-5.646;2023-05-15T06:28:02;21.13;;;15.88;;
73760;SDS011;69240;43.530;-5.646;2023-05-15T06:30:28;18.75;;;13.65;;
73760;SDS011;69240;43.530;-5.646;2023-05-15T06:32:54;22.25;;;15.50;;
73760;SDS011;69240;43.530;-5.646;2023-05-15T06:35:19;22.17;;;14.25;;
73760;SDS011;69240;43.530;-5.646;2023-05-15T06:37:48;23.67;;;14.85;;
73760;SDS011;69240;43.530;-5.646;2023-05-15T06:40:14;17.85;;;14.07;;
73760;SDS011;69240;43.530;-5.646;2023-05-15T06:42:40;21.38;;;14.40;;
73760;SDS011;69240;43.530;-5.646;2023-05-15T06:45:06;18.60;;;13.52;;
73760;SDS011;69240;43.530;-5.646;2023-05-15T06:47:32;18.30;;;13.80;;
73760;SDS011;69240;43.530;-5.646;2023-05-15T06:49:58;20.60;;;13.80;;
73760;SDS011;69240;43.530;-5.646;2023-05-15T06:52:24;19.70;;;13.20;;
73760;SDS011;69240;43.530;-5.646;2023-05-15T06:54:49;17.02;;;11.02;;
73760;SDS011;69240;43.530;-5.646;2023-05-15T06:57:16;16.92;;;12.27;;
73760;SDS011;69240;43.530;-5.646;2023-05-15T06:59:42;16.55;;;12.63;;
73760;SDS011;69240;43.530;-5.646;2023-05-15T07:02:07;20.80;;;14.25;;
73760;SDS011;69240;43.530;-5.646;2023-05-15T07:04:33;20.02;;;15.48;;
73760;SDS011;69240;43.530;-5.646;2023-05-15T07:06:59;20.40;;;12.73;;
73760;SDS011;69240;43.530;-5.646;2023-05-15T07:09:24;18.10;;;12.40;;
73760;SDS011;69240;43.530;-5.646;2023-05-15T07:11:50;20.20;;;11.38;;
73760;SDS011;69240;43.530;-5.646;2023-05-15T07:14:15;13.90;;;11.15;;
73760;SDS011;69240;43.530;-5.646;2023-05-15T07:16:41;15.23;;;10.38;;
73760;SDS011;69240;43.530;-5.646;2023-05-15T07:19:07;15.43;;;11.90;;
73760;SDS011;69240;43.530;-5.646;2023-05-15T07:21:33;16.10;;;12.80;;
73760;SDS011;69240;43.530;-5.646;2023-05-15T07:23:59;19.15;;;12.25;;
73760;SDS011;69240;43.530;-5.646;2023-05-15T07:26:25;17.13;;;11.18;;
73760;SDS011;69240;43.530;-5.646;2023-05-15T07:28:50;15.23;;;12.52;;
73760;SDS011;69240;43.530;-5.646;2023-05-15T07:31:16;19.92;;;13.60;;
73760;SDS011;69240;43.530;-5.646;2023-05-15T07:33:45;18.35;;;12.82;;
73760;SDS011;69240;43.530;-5.646;2023-05-15T07:36:33;18.60;;;13.52;;
73760;SDS011;69240;43.530;-5.646;2023-05-15T07:39:02;20.40;;;13.43;;
73760;SDS011;69240;43.530;-5.646;2023-05-15T07:41:28;20.67;;;14.15;;
73760;SDS011;69240;43.530;-5.646;2023-05-15T07:43:55;19.83;;;13.13;;
73760;SDS011;69240;43.530;-5.646;2023-05-15T07:46:20;18.95;;;13.63;;
73760;SDS011;69240;43.530;-5.646;2023-05-15T07:48:46;17.73;;;11.70;;
73760;SDS011;69240;43.530;-5.646;2023-05-15T07:51:11;19.35;;;13.52;;
73760;SDS011;69240;43.530;-5.646;2023-05-15T07:53:37;22.33;;;12.98;;
73760;SDS011;69240;43.530;-5.646;2023-05-15T07:56:05;19.00;;;12.73;;
73760;SDS011;69240;43.530;-5.646;2023-05-15T07:58:30;17.27;;;11.98;;
73760;SDS011;69240;43.530;-5.646;2023-05-15T08:00:59;17.10;;;12.35;;
73760;SDS011;69240;43.530;-5.646;2023-05-15T08:03:25;20.15;;;12.32;;
73760;SDS011;69240;43.530;-5.646;2023-05-15T08:05:50;17.15;;;13.23;;
73760;SDS011;69240;43.530;-5.646;2023-05-15T08:08:16;18.30;;;12.55;;
73760;SDS011;69240;43.530;-5.646;2023-05-15T08:10:41;17.38;;;11.73;;
73760;SDS011;69240;43.530;-5.646;2023-05-15T08:13:07;19.27;;;13.88;;
73760;SDS011;69240;43.530;-5.646;2023-05-15T08:15:32;20.38;;;12.85;;
73760;SDS011;69240;43.530;-5.646;2023-05-15T08:17:58;15.45;;;10.02;;
73760;SDS011;69240;43.530;-5.646;2023-05-15T08:20:23;15.02;;;6.60;;
73760;SDS011;69240;43.530;-5.646;2023-05-15T08:22:49;7.25;;;4.28;;
73760;SDS011;69240;43.530;-5.646;2023-05-15T08:25:14;5.97;;;3.45;;
73760;SDS011;69240;43.530;-5.646;2023-05-15T08:27:40;4.90;;;2.92;;
73760;SDS011;69240;43.530;-5.646;2023-05-15T08:30:06;5.53;;;3.13;;
73760;SDS011;69240;43.530;-5.646;2023-05-15T08:32:32;6.20;;;3.22;;
73760;SDS011;69240;43.530;-5.646;2023-05-15T08:34:58;4.15;;;2.72;;
73760;SDS011;69240;43.530;-5.646;2023-05-15T08:37:23;4.68;;;2.50;;
73760;SDS011;69240;43.530;-5.646;2023-05-15T08:39:49;5.47;;;2.22;;
73760;SDS011;69240;43.530;-5.646;2023-05-15T08:42:23;3.90;;;2.38;;
73760;SDS011;69240;43.530;-5.646;2023-05-15T08:44:56;3.47;;;2.15;;
73760;SDS011;69240;43.530;-5.646;2023-05-15T08:47:23;3.40;;;2.00;;
73760;SDS011;69240;43.530;-5.646;2023-05-15T08:50:08;4.10;;;2.10;;
73760;SDS011;69240;43.530;-5.646;2023-05-15T08:52:39;6.30;;;2.33;;
73760;SDS011;69240;43.530;-5.646;2023-05-15T08:55:07;4.28;;;2.05;;
73760;SDS011;69240;43.530;-5.646;2023-05-15T08:57:35;2.88;;;1.80;;
73760;SDS011;69240;43.530;-5.646;2023-05-15T09:00:01;3.42;;;2.13;;
73760;SDS011;69240;43.530;-5.646;2023-05-15T09:02:29;4.32;;;2.15;;
73760;SDS011;69240;43.530;-5.646;2023-05-15T09:04:55;6.72;;;2.30;;
73760;SDS011;69240;43.530;-5.646;2023-05-15T09:07:20;3.95;;;2.47;;
73760;SDS011;69240;43.530;-5.646;2023-05-15T09:09:47;4.18;;;2.10;;
73760;SDS011;69240;43.530;-5.646;2023-05-15T09:12:14;7.10;;;2.65;;
73760;SDS011;69240;43.530;-5.646;2023-05-15T09:14:41;5.63;;;2.15;;
73760;SDS011;69240;43.530;-5.646;2023-05-15T09:17:10;5.85;;;2.00;;
73760;SDS011;69240;43.530;-5.646;2023-05-15T09:19:37;3.90;;;2.00;;
73760;SDS011;69240;43.530;-5.646;2023-05-15T09:22:16;5.38;;;2.10;;
73760;SDS011;69240;43.530;-5.646;2023-05-15T09:24:47;5.18;;;1.67;;
73760;SDS011;69240;43.530;-5.646;2023-05-15T09:27:15;4.38;;;1.77;;
73760;SDS011;69240;43.530;-5.646;2023-05-15T09:29:41;4.40;;;1.70;;
73760;SDS011;69240;43.530;-5.646;2023-05-15T09:32:07;3.47;;;1.80;;
73760;SDS011;69240;43.530;-5.646;2023-05-15T09:34:38;3.78;;;1.40;;
73760;SDS011;69240;43.530;-5.646;2023-05-15T09:37:06;5.20;;;2.00;;
73760;SDS011;69240;43.530;-5.646;2023-05-15T09:39:40;6.20;;;1.98;;
73760;SDS011;69240;43.530;-5.646;2023-05-15T09:42:10;4.65;;;2.42;;
73760;SDS011;69240;43.530;-5.646;2023-05-15T09:44:41;2.70;;;1.90;;
73760;SDS011;69240;43.530;-5.646;2023-05-15T09:47:08;3.53;;;1.67;;
73760;SDS011;69240;43.530;-5.646;2023-05-15T09:49:35;5.07;;;1.90;;
73760;SDS011;69240;43.530;-5.646;2023-05-15T09:52:01;3.65;;;2.10;;
73760;SDS011;69240;43.530;-5.646;2023-05-15T09:54:27;3.05;;;1.90;;
73760;SDS011;69240;43.530;-5.646;2023-05-15T09:56:56;5.38;;;1.80;;
73760;SDS011;69240;43.530;-5.646;2023-05-15T09:59:32;2.13;;;1.40;;
73760;SDS011;69240;43.530;-5.646;2023-05-15T10:01:57;2.90;;;1.35;;
73760;SDS011;69240;43.530;-5.646;2023-05-15T10:04:23;3.17;;;1.60;;
73760;SDS011;69240;43.530;-5.646;2023-05-15T10:06:49;10.88;;;1.50;;
73760;SDS011;69240;43.530;-5.646;2023-05-15T10:09:14;4.43;;;1.50;;
73760;SDS011;69240;43.530;-5.646;2023-05-15T10:11:45;3.15;;;1.55;;
73760;SDS011;69240;43.530;-5.646;2023-05-15T10:14:14;4.80;;;1.20;;
73760;SDS011;69240;43.530;-5.646;2023-05-15T10:16:41;2.65;;;1.38;;
73760;SDS011;69240;43.530;-5.646;2023-05-15T10:19:08;2.92;;;1.33;;
73760;SDS011;69240;43.530;-5.646;2023-05-15T10:21:36;2.50;;;1.20;;
73760;SDS011;69240;43.530;-5.646;2023-05-15T10:24:05;5.53;;;1.58;;
73760;SDS011;69240;43.530;-5.646;2023-05-15T10:26:38;3.28;;;1.10;;
73760;SDS011;69240;43.530;-5.646;2023-05-15T10:29:07;1.52;;;0.88;;
73760;SDS011;69240;43.530;-5.646;2023-05-15T10:31:36;2.50;;;1.40;;
73760;SDS011;69240;43.530;-5.646;2023-05-15T10:34:03;4.57;;;1.35;;
73760;SDS011;69240;43.530;-5.646;2023-05-15T10:36:34;2.55;;;1.30;;
73760;SDS011;69240;43.530;-5.646;2023-05-15T10:39:05;2.22;;;1.42;;
73760;SDS011;69240;43.530;-5.646;2023-05-15T10:41:32;3.15;;;1.20;;
73760;SDS011;69240;43.530;-5.646;2023-05-15T10:44:01;5.93;;;1.23;;
73760;SDS011;69240;43.530;-5.646;2023-05-15T10:46:28;3.15;;;1.30;;
73760;SDS011;69240;43.530;-5.646;2023-05-15T10:48:56;2.10;;;1.23;;
73760;SDS011;69240;43.530;-5.646;2023-05-15T10:51:23;4.75;;;2.15;;
73760;SDS011;69240;43.530;-5.646;2023-05-15T10:53:51;3.55;;;1.73;;
73760;SDS011;69240;43.530;-5.646;2023-05-15T10:56:17;3.40;;;1.65;;
73760;SDS011;69240;43.530;-5.646;2023-05-15T10:58:47;3.78;;;1.40;;
73760;SDS011;69240;43.530;-5.646;2023-05-15T11:01:29;7.35;;;1.73;;
73760;SDS011;69240;43.530;-5.646;2023-05-15T11:06:39;8.82;;;1.80;;
73760;SDS011;69240;43.530;-5.646;2023-05-15T11:14:15;7.40;;;1.90;;
73760;SDS011;69240;43.530;-5.646;2023-05-15T11:21:56;5.05;;;1.40;;
73760;SDS011;69240;43.530;-5.646;2023-05-15T11:24:26;2.58;;;1.42;;
73760;SDS011;69240;43.530;-5.646;2023-05-15T11:27:03;1.92;;;1.25;;
73760;SDS011;69240;43.530;-5.646;2023-05-15T11:29:28;6.00;;;1.83;;
73760;SDS011;69240;43.530;-5.646;2023-05-15T11:31:55;5.18;;;2.28;;
73760;SDS011;69240;43.530;-5.646;2023-05-15T11:34:34;3.00;;;1.52;;
73760;SDS011;69240;43.530;-5.646;2023-05-15T11:39:37;2.33;;;1.15;;
73760;SDS011;69240;43.530;-5.646;2023-05-15T11:42:10;2.55;;;1.20;;
73760;SDS011;69240;43.530;-5.646;2023-05-15T11:44:36;2.97;;;1.40;;
73760;SDS011;69240;43.530;-5.646;2023-05-15T11:47:01;3.72;;;1.33;;
73760;SDS011;69240;43.530;-5.646;2023-05-15T11:49:27;2.83;;;1.30;;
73760;SDS011;69240;43.530;-5.646;2023-05-15T11:51:53;3.58;;;1.50;;
73760;SDS011;69240;43.530;-5.646;2023-05-15T11:54:18;3.30;;;1.50;;
73760;SDS011;69240;43.530;-5.646;2023-05-15T11:56:45;3.50;;;1.50;;
73760;SDS011;69240;43.530;-5.646;2023-05-15T11:59:13;2.38;;;1.45;;
73760;SDS011;69240;43.530;-5.646;2023-05-15T12:01:40;3.45;;;1.45;;
73760;SDS011;69240;43.530;-5.646;2023-05-15T12:04:13;5.82;;;1.48;;
73760;SDS011;69240;43.530;-5.646;2023-05-15T12:06:39;5.47;;;1.33;;
73760;SDS011;69240;43.530;-5.646;2023-05-15T12:09:05;3.30;;;1.17;;
73760;SDS011;69240;43.530;-5.646;2023-05-15T12:11:40;2.55;;;0.85;;
73760;SDS011;69240;43.530;-5.646;2023-05-15T12:14:13;3.38;;;1.10;;
73760;SDS011;69240;43.530;-5.646;2023-05-15T12:16:38;4.03;;;1.00;;
73760;SDS011;69240;43.530;-5.646;2023-05-15T12:19:04;2.50;;;0.88;;
73760;SDS011;69240;43.530;-5.646;2023-05-15T12:21:30;2.30;;;1.00;;
73760;SDS011;69240;43.530;-5.646;2023-05-15T12:23:55;2.55;;;1.02;;
73760;SDS011;69240;43.530;-5.646;2023-05-15T12:26:21;2.85;;;1.05;;
73760;SDS011;69240;43.530;-5.646;2023-05-15T12:28:48;2.15;;;0.90;;
73760;SDS011;69240;43.530;-5.646;2023-05-15T12:31:14;2.13;;;0.88;;
73760;SDS011;69240;43.530;-5.646;2023-05-15T12:33:41;2.25;;;1.00;;
73760;SDS011;69240;43.530;-5.646;2023-05-15T12:36:08;6.28;;;1.20;;
73760;SDS011;69240;43.530;-5.646;2023-05-15T12:38:34;7.18;;;1.50;;
73760;SDS011;69240;43.530;-5.646;2023-05-15T12:41:00;5.22;;;1.80;;
73760;SDS011;69240;43.530;-5.646;2023-05-15T12:43:26;4.43;;;1.55;;
73760;SDS011;69240;43.530;-5.646;2023-05-15T12:45:52;4.93;;;1.20;;
73760;SDS011;69240;43.530;-5.646;2023-05-15T12:48:30;5.47;;;1.40;;
73760;SDS011;69240;43.530;-5.646;2023-05-15T12:51:02;4.50;;;1.40;;
73760;SDS011;69240;43.530;-5.646;2023-05-15T12:53:30;5.55;;;1.50;;
73760;SDS011;69240;43.530;-5.646;2023-05-15T12:55:58;1.77;;;0.98;;
73760;SDS011;69240;43.530;-5.646;2023-05-15T12:58:24;5.88;;;1.10;;
73760;SDS011;69240;43.530;-5.646;2023-05-15T13:00:50;5.97;;;1.30;;
73760;SDS011;69240;43.530;-5.646;2023-05-15T13:03:18;2.42;;;0.85;;
73760;SDS011;69240;43.530;-5.646;2023-05-15T13:05:45;3.03;;;1.08;;
73760;SDS011;69240;43.530;-5.646;2023-05-15T13:08:15;2.90;;;1.20;;
73760;SDS011;69240;43.530;-5.646;2023-05-15T13:10:41;2.47;;;1.13;;
73760;SDS011;69240;43.530;-5.646;2023-05-15T13:13:07;3.72;;;0.93;;
73760;SDS011;69240;43.530;-5.646;2023-05-15T13:18:03;3.70;;;1.08;;
73760;SDS011;69240;43.530;-5.646;2023-05-15T13:20:37;4.05;;;1.10;;
73760;SDS011;69240;43.530;-5.646;2023-05-15T13:23:14;4.68;;;0.95;;
73760;SDS011;69240;43.530;-5.646;2023-05-15T13:25:41;4.68;;;1.00;;
73760;SDS011;69240;43.530;-5.646;2023-05-15T13:28:07;3.40;;;1.00;;
73760;SDS011;69240;43.530;-5.646;2023-05-15T13:30:37;3.03;;;1.00;;
73760;SDS011;69240;43.530;-5.646;2023-05-15T13:33:05;3.92;;;1.00;;
73760;SDS011;69240;43.530;-5.646;2023-05-15T13:35:32;3.53;;;1.05;;
73760;SDS011;69240;43.530;-5.646;2023-05-15T13:37:58;5.13;;;1.10;;
73760;SDS011;69240;43.530;-5.646;2023-05-15T13:40:24;4.47;;;1.10;;
73760;SDS011;69240;43.530;-5.646;2023-05-15T13:42:51;1.35;;;0.80;;
73760;SDS011;69240;43.530;-5.646;2023-05-15T13:45:16;3.65;;;1.02;;
73760;SDS011;69240;43.530;-5.646;2023-05-15T13:47:42;1.67;;;0.80;;
73760;SDS011;69240;43.530;-5.646;2023-05-15T13:50:08;3.92;;;1.00;;
73760;SDS011;69240;43.530;-5.646;2023-05-15T13:52:35;3.45;;;0.90;;
73760;SDS011;69240;43.530;-5.646;2023-05-15T13:55:01;3.30;;;1.00;;
73760;SDS011;69240;43.530;-5.646;2023-05-15T13:57:28;4.45;;;0.80;;
73760;SDS011;69240;43.530;-5.646;2023-05-15T13:59:55;5.78;;;1.15;;
73760;SDS011;69240;43.530;-5.646;2023-05-15T14:02:21;3.80;;;1.00;;
73760;SDS011;69240;43.530;-5.646;2023-05-15T14:04:50;7.28;;;1.40;;
73760;SDS011;69240;43.530;-5.646;2023-05-15T14:07:16;5.10;;;1.10;;
73760;SDS011;69240;43.530;-5.646;2023-05-15T14:09:42;4.45;;;0.98;;
73760;SDS011;69240;43.530;-5.646;2023-05-15T14:12:07;4.20;;;1.10;;
73760;SDS011;69240;43.530;-5.646;2023-05-15T14:14:34;2.08;;;1.08;;
73760;SDS011;69240;43.530;-5.646;2023-05-15T14:16:59;5.60;;;1.50;;
73760;SDS011;69240;43.530;-5.646;2023-05-15T14:19:31;4.05;;;1.10;;
73760;SDS011;69240;43.530;-5.646;2023-05-15T14:21:57;3.53;;;0.90;;
73760;SDS011;69240;43.530;-5.646;2023-05-15T14:24:22;1.63;;;0.80;;
73760;SDS011;69240;43.530;-5.646;2023-05-15T14:26:48;6.07;;;1.20;;
73760;SDS011;69240;43.530;-5.646;2023-05-15T14:29:13;3.42;;;0.90;;
73760;SDS011;69240;43.530;-5.646;2023-05-15T14:31:39;4.40;;;1.20;;
73760;SDS011;69240;43.530;-5.646;2023-05-15T14:34:07;3.25;;;0.80;;
73760;SDS011;69240;43.530;-5.646;2023-05-15T14:36:33;2.08;;;0.80;;
73760;SDS011;69240;43.530;-5.646;2023-05-15T14:38:58;3.25;;;0.98;;
73760;SDS011;69240;43.530;-5.646;2023-05-15T14:41:24;4.00;;;0.90;;
73760;SDS011;69240;43.530;-5.646;2023-05-15T14:43:49;2.25;;;0.90;;
73760;SDS011;69240;43.530;-5.646;2023-05-15T14:46:15;4.18;;;0.82;;
73760;SDS011;69240;43.530;-5.646;2023-05-15T14:48:41;2.35;;;1.05;;
73760;SDS011;69240;43.530;-5.646;2023-05-15T14:51:06;4.82;;;1.15;;
73760;SDS011;69240;43.530;-5.646;2023-05-15T14:53:32;5.72;;;1.23;;
73760;SDS011;69240;43.530;-5.646;2023-05-15T14:55:58;3.15;;;0.98;;
73760;SDS011;69240;43.530;-5.646;2023-05-15T14:58:24;5.70;;;1.10;;